Data for 02/23/2010

Time Sea-Level Adjusted Pressure Absolute Pressure Temperature Relative Humidity Dew Point   
(mb) (inHg) (mb) (inHg) (C) (F) (%) (C) (F)
00:05 1018 30.06 848 25.04 -6.5 20.3 65 -12.1 10.2
00:10 1018 30.06 848 25.04 -6.2 20.8 64 -12 10.3
00:15 1018 30.06 848 25.04 -6.2 20.9 64 -11.9 10.6
00:20 1018 30.06 848 25.04 -6 21.1 64 -11.8 10.7
00:25 1018 30.06 848 25.04 -5.9 21.3 63 -11.8 10.8
00:30 1018 30.06 848 25.04 -6.2 20.9 65 -11.8 10.8
00:35 1019 30.09 848 25.04 -6.4 20.5 65 -12 10.4
00:40 1019 30.09 848 25.04 -6.2 20.8 64 -11.9 10.5
00:45 1019 30.09 848 25.04 -6.4 20.5 65 -11.8 10.7
00:50 1019 30.09 848 25.04 -6.6 20.1 64 -12.4 9.7
00:55 1019 30.09 848 25.04 -6.3 20.7 62 -12.4 9.7
01:00 1019 30.09 848 25.04 -6.1 21 61 -12.4 9.6
01:05 1019 30.09 848 25.04 -6 21.2 61 -12.5 9.6
01:10 1019 30.09 848 25.04 -6.5 20.3 65 -12.1 10.3
01:15 1019 30.09 848 25.04 -7.2 19.1 67 -12.3 9.8
01:20 1019 30.09 848 25.04 -7.2 19.1 65 -12.6 9.3
01:25 1019 30.09 848 25.04 -6.9 19.5 64 -12.7 9.1
01:30 1019 30.09 848 25.04 -6.8 19.8 63 -12.7 9.2
01:35 1019 30.09 848 25.04 -6.9 19.5 65 -12.4 9.7
01:40 1019 30.09 848 25.04 -7.2 19 65 -12.8 8.9
01:45 1019 30.09 848 25.04 -7.2 19.1 64 -12.9 8.8
01:50 1019 30.09 848 25.04 -6.9 19.6 62 -13 8.6
01:55 1019 30.09 848 25.04 -6.7 20 62 -12.8 8.9
02:00 1019 30.09 848 25.04 -6.3 20.6 62 -12.5 9.5
02:05 1019 30.09 848 25.04 -6.7 19.9 63 -12.6 9.3
02:10 1019 30.09 848 25.04 -7.5 18.5 67 -12.6 9.4
02:15 1019 30.09 848 25.04 -8.1 17.4 70 -12.7 9.1
02:20 1019 30.09 848 25.04 -7.8 18 65 -13.2 8.2
02:25 1019 30.09 848 25.04 -7.3 19 65 -12.7 9.1
02:30 1019 30.09 848 25.04 -6.8 19.8 66 -12.2 10
02:35 1019 30.09 848 25.04 -6.9 19.5 65 -12.4 9.6
02:40 1019 30.09 848 25.04 -7.5 18.5 66 -12.9 8.8
02:45 1019 30.09 848 25.04 -6.8 19.7 64 -12.5 9.5
02:50 1019 30.09 848 25.04 -7.1 19.3 66 -12.5 9.6
02:55 1019 30.09 848 25.04 -6.8 19.8 64 -12.6 9.4
03:00 1019 30.09 848 25.04 -6.5 20.3 63 -12.4 9.8
03:05 1019 30.09 848 25.04 -6.9 19.7 67 -12 10.4
03:10 1019 30.09 848 25.04 -7.1 19.2 72 -11.3 11.6
03:15 1019 30.09 848 25.04 -7 19.5 70 -11.6 11
03:20 1019 30.09 848 25.04 -7 19.5 67 -12.1 10.2
03:25 1019 30.09 848 25.04 -7.4 18.7 70 -12 10.4
03:30 1019 30.09 848 25.04 -7.6 18.3 69 -12.4 9.7
03:35 1019 30.09 848 25.04 -7.7 18.1 67 -12.9 8.9
03:40 1019 30.09 848 25.04 -7.4 18.6 67 -12.5 9.4
03:45 1019 30.09 848 25.04 -7.1 19.1 66 -12.5 9.5
03:50 1019 30.09 848 25.04 -7.4 18.8 69 -12.1 10.2
03:55 1019 30.09 848 25.04 -7.1 19.2 67 -12.3 9.9
04:00 1019 30.09 848 25.04 -7.3 19 67 -12.4 9.7
04:05 1019 30.09 848 25.04 -7.3 18.8 68 -12.3 9.8
04:10 1019 30.09 848 25.04 -7.5 18.6 73 -11.6 11.2
04:15 1019 30.09 848 25.04 -7.3 18.9 68 -12.2 10
04:20 1019 30.09 848 25.04 -7.3 18.9 68 -12.1 10.2
04:25 1019 30.09 849 25.07 -7.5 18.6 68 -12.5 9.6
04:30 1019 30.09 849 25.07 -7.6 18.4 67 -12.7 9.1
04:35 1019 30.09 849 25.07 -7.7 18.2 67 -12.8 8.9
04:40 1019 30.09 849 25.07 -7.8 18 66 -13.1 8.4
04:45 1019 30.09 849 25.07 -7.9 17.8 67 -13 8.6
04:50 1019 30.09 849 25.07 -7.7 18.2 66 -12.9 8.7
04:55 1019 30.09 849 25.07 -7.7 18.1 67 -12.9 8.8
05:00 1019 30.09 849 25.07 -7.7 18.2 68 -12.7 9.2
05:05 1019 30.09 849 25.07 -7.6 18.3 67 -12.8 9
05:10 1020 30.12 849 25.07 -7.8 17.9 68 -12.8 9
05:15 1020 30.12 849 25.07 -7.8 17.9 68 -12.8 8.9
05:20 1020 30.12 849 25.07 -7.9 17.8 68 -12.7 9.1
05:25 1020 30.12 849 25.07 -7.9 17.8 68 -12.8 9
05:30 1020 30.12 849 25.07 -8 17.6 69 -12.8 9
05:35 1020 30.12 849 25.07 -8.2 17.3 69 -12.9 8.7
05:40 1020 30.12 849 25.07 -8.5 16.8 70 -13 8.6
05:45 1020 30.12 849 25.07 -8.5 16.6 70 -13.1 8.4
05:50 1020 30.12 849 25.07 -8.5 16.7 70 -13 8.5
05:55 1020 30.12 849 25.07 -8.7 16.4 71 -13.1 8.4
06:00 1020 30.12 849 25.07 -8.8 16.1 71 -13.2 8.2
06:05 1020 30.12 849 25.07 -9 15.8 71 -13.3 8.1
06:10 1020 30.12 849 25.07 -9.1 15.7 72 -13.3 8
06:15 1020 30.12 849 25.07 -9.1 15.7 72 -13.2 8.2
06:20 1020 30.12 849 25.07 -8.6 16.5 70 -13.1 8.3
06:25 1020 30.12 849 25.07 -8.6 16.5 70 -13.1 8.4
06:30 1020 30.12 849 25.07 -8.9 16 72 -13.2 8.3
06:35 1020 30.12 849 25.07 -9.1 15.6 73 -13.1 8.3
06:40 1020 30.12 849 25.07 -8.7 16.3 69 -13.4 7.9
06:45 1020 30.12 849 25.07 -8.5 16.8 70 -13.1 8.5
06:50 1020 30.12 849 25.07 -8.3 17 69 -13 8.7
06:55 1020 30.12 849 25.07 -8.6 16.6 70 -13.1 8.5
07:00 1020 30.12 849 25.07 -8.8 16.2 71 -13.1 8.5
07:05 1020 30.12 849 25.07 -9 15.9 72 -13.2 8.2
07:10 1020 30.12 849 25.07 -8.9 15.9 71 -13.3 8.1
07:15 1020 30.12 849 25.07 -9.2 15.4 72 -13.4 8
07:20 1020 30.12 849 25.07 -8.8 16.2 70 -13.4 7.9
07:25 1020 30.12 849 25.07 -8.1 17.3 69 -13 8.7
07:30 1020 30.12 849 25.07 -8.1 17.4 68 -13.1 8.5
07:35 1020 30.12 849 25.07 -8.4 17 67 -13.4 8
07:40 1020 30.12 849 25.07 -8.6 16.6 70 -13.1 8.5
07:45 1020 30.12 849 25.07 -8.4 16.8 69 -13.2 8.3
07:50 1020 30.12 849 25.07 -8.1 17.5 65 -13.5 7.8
07:55 1020 30.12 849 25.07 -8 17.6 67 -13.1 8.4
08:00 1020 30.12 849 25.07 -7.9 17.8 66 -13.3 8.1
08:05 1020 30.12 849 25.07 -7.1 19.1 63 -13 8.5
08:10 1020 30.12 849 25.07 -6.9 19.7 62 -12.9 8.7
08:15 1020 30.12 849 25.07 -6.7 20 61 -13 8.6
08:20 1020 30.12 849 25.07 -6.4 20.6 60 -12.8 8.9
08:25 1020 30.12 849 25.07 -6.1 20.9 60 -12.6 9.3
08:30 1020 30.12 849 25.07 -5.5 22 57 -12.8 8.9
08:35 1020 30.12 849 25.07 -5.1 22.8 55 -12.7 9.1
08:40 1020 30.12 849 25.07 -5.1 22.7 56 -12.7 9.2
08:45 1020 30.12 849 25.07 -4.9 23.1 55 -12.7 9.2
08:50 1020 30.12 849 25.07 -4.2 24.5 52 -12.6 9.4
08:55 1020 30.12 849 25.07 -3.9 25.1 51 -12.6 9.4
09:00 1020 30.12 849 25.07 -3.5 25.7 50 -12.5 9.5
09:05 1020 30.12 849 25.07 -3.6 25.6 50 -12.6 9.4
09:10 1020 30.12 849 25.07 -3.9 24.9 51 -12.7 9.1
09:15 1020 30.12 849 25.07 -3.7 25.4 50 -12.6 9.4
09:20 1020 30.12 849 25.07 -3.4 25.9 51 -12.1 10.2
09:25 1020 30.12 849 25.07 -2.9 26.7 48 -12.5 9.5
09:30 1020 30.12 849 25.07 -2.9 26.9 49 -12.2 10
09:35 1020 30.12 849 25.07 -2.2 28 47 -12.2 10.1
09:40 1020 30.12 849 25.07 -1.4 29.5 44 -12.3 9.9
09:45 1020 30.12 849 25.07 -1.5 29.4 45 -11.8 10.8
09:50 1020 30.12 849 25.07 -1.4 29.5 45 -11.9 10.5
09:55 1020 30.12 849 25.07 -1 30.2 43 -12.1 10.2
10:00 1020 30.12 849 25.07 -0.6 30.9 42 -11.9 10.5
10:05 1020 30.12 849 25.07 -0.2 31.7 41 -11.9 10.6
10:10 1020 30.12 849 25.07 -0.1 31.7 41 -11.9 10.6
10:15 1020 30.12 849 25.07 0.4 32.7 40 -11.8 10.7
10:20 1020 30.12 849 25.07 1 33.9 39 -11.3 11.6
10:25 1020 30.12 849 25.07 1 33.7 38 -11.8 10.7
10:30 1020 30.12 849 25.07 0.7 33.2 39 -11.8 10.8
10:35 1020 30.12 849 25.07 0.7 33.3 39 -11.7 11
10:40 1020 30.12 849 25.07 1.4 34.5 37 -11.8 10.7
10:45 1020 30.12 849 25.07 1.2 34.2 38 -11.5 11.4
10:50 1020 30.12 849 25.07 1.2 34.1 38 -11.7 11
10:55 1020 30.12 849 25.07 1.5 34.6 36 -12.2 10
11:00 1020 30.12 849 25.07 1.9 35.4 36 -11.7 10.9
11:05 1020 30.12 849 25.07 1.7 35.1 36 -11.9 10.5
11:10 1020 30.12 849 25.07 1.4 34.5 37 -11.8 10.8
11:15 1020 30.12 849 25.07 2.1 35.8 35 -12 10.5
11:20 1020 30.12 849 25.07 2.3 36.2 36 -11.3 11.7
11:25 1020 30.12 849 25.07 2.1 35.8 35 -11.7 10.9
11:30 1020 30.12 849 25.07 2.1 35.8 36 -11.5 11.3
11:35 1020 30.12 849 25.07 2.6 36.7 34 -11.8 10.7
11:40 1020 30.12 849 25.07 2.9 37.2 34 -11.4 11.5
11:45 1020 30.12 849 25.07 3.2 37.8 35 -10.9 12.3
11:50 1020 30.12 849 25.07 4.1 39.4 33 -10.9 12.3
11:55 1020 30.12 849 25.07 4.3 39.7 30 -11.8 10.8
12:00 1020 30.12 849 25.07 3.5 38.3 30 -12.7 9.1
12:05 1020 30.12 849 25.07 3.7 38.6 32 -11.7 10.9
12:10 1020 30.12 849 25.07 4.2 39.6 29 -12.4 9.7
12:15 1019 30.09 849 25.07 4.2 39.6 32 -11.1 12.1
12:20 1019 30.09 849 25.07 4.6 40.3 31 -11.3 11.7
12:25 1019 30.09 849 25.07 4.1 39.5 32 -11 12.2
12:30 1019 30.09 848 25.04 3.7 38.7 34 -10.7 12.8
12:35 1019 30.09 848 25.04 3.5 38.3 32 -11.7 11
12:40 1019 30.09 848 25.04 3.7 38.7 34 -11 12.3
12:45 1019 30.09 848 25.04 3.9 39 32 -11.4 11.5
12:50 1019 30.09 848 25.04 4.1 39.3 34 -10.6 12.9
12:55 1019 30.09 848 25.04 4.6 40.2 30 -11.5 11.4
13:00 1019 30.09 848 25.04 4.5 40.2 34 -10.1 13.8
13:05 1019 30.09 848 25.04 4.2 39.5 34 -10.4 13.2
13:10 1019 30.09 848 25.04 4.3 39.7 33 -10.5 13.1
13:15 1019 30.09 848 25.04 4.8 40.6 31 -11 12.2
13:20 1019 30.09 848 25.04 5.1 41.2 33 -10 13.9
13:25 1019 30.09 848 25.04 4.5 40.2 32 -10.9 12.5
13:30 1019 30.09 848 25.04 4.4 39.8 32 -11 12.1
13:35 1018 30.06 848 25.04 4.8 40.6 30 -11.4 11.6
13:40 1018 30.06 848 25.04 5.3 41.5 30 -10.9 12.3
13:45 1018 30.06 848 25.04 5.6 42 27 -11.9 10.5
13:50 1018 30.06 847 25.01 5.6 42 27 -12.2 10
13:55 1018 30.06 847 25.01 5.3 41.5 29 -11.3 11.7
14:00 1018 30.06 847 25.01 5.1 41.1 30 -11.2 11.9
14:05 1018 30.06 847 25.01 5.2 41.3 26 -12.7 9.1
14:10 1018 30.06 847 25.01 5.3 41.5 25 -13.4 7.8
14:15 1018 30.06 847 25.01 6 42.8 24 -12.9 8.8
14:20 1018 30.06 847 25.01 5.6 42 26 -12.3 9.8
14:25 1018 30.06 847 25.01 5.2 41.3 25 -13.2 8.3
14:30 1018 30.06 847 25.01 5.8 42.5 24 -13 8.5
14:35 1018 30.06 847 25.01 6.4 43.5 24 -12.9 8.8
14:40 1018 30.06 847 25.01 5.3 41.6 26 -12.6 9.3
14:45 1017 30.03 847 25.01 5.1 41.1 25 -13.2 8.2
14:50 1017 30.03 847 25.01 5.1 41.2 26 -12.7 9.2
14:55 1017 30.03 846 24.98 5.7 42.2 25 -12.7 9.1
15:00 1017 30.03 846 24.98 6.6 43.8 24 -12.6 9.4
15:05 1017 30.03 846 24.98 6.5 43.7 26 -11.7 10.9
15:10 1017 30.03 846 24.98 6.7 44 25 -12.3 9.9
15:15 1017 30.03 846 24.98 7.1 44.7 25 -11.9 10.6
15:20 1017 30.03 846 24.98 7 44.6 23 -12.6 9.3
15:25 1017 30.03 846 24.98 6.7 44.1 24 -12.3 9.9
15:30 1017 30.03 846 24.98 6.7 44.1 24 -12.7 9.2
15:35 1017 30.03 846 24.98 6.6 43.9 24 -12.5 9.5
15:40 1017 30.03 846 24.98 7.3 45.2 24 -12.2 10
15:45 1017 30.03 846 24.98 7.1 44.8 23 -12.6 9.3
15:50 1017 30.03 846 24.98 7.2 45 23 -12.6 9.3
15:55 1017 30.03 846 24.98 7.6 45.6 23 -12.3 9.8
16:00 1017 30.03 846 24.98 6.9 44.5 24 -12.2 10
16:05 1017 30.03 846 24.98 7.1 44.7 23 -12.8 8.9
16:10 1017 30.03 846 24.98 7.2 45 24 -12 10.4
16:15 1017 30.03 846 24.98 7.4 45.3 24 -11.9 10.7
16:20 1017 30.03 846 24.98 7.7 45.8 22 -12.9 8.8
16:25 1016 30 846 24.98 7.3 45.2 23 -12.4 9.7
16:30 1016 30 846 24.98 7.3 45.1 22 -13.2 8.2
16:35 1016 30 845 24.95 7.3 45.1 22 -13.3 8.1
16:40 1016 30 845 24.95 7.2 45 25 -11.7 11
16:45 1016 30 845 24.95 7 44.6 25 -11.9 10.6
16:50 1016 30 845 24.95 6.6 43.8 26 -11.5 11.2
16:55 1016 30 845 24.95 6.8 44.2 26 -11.3 11.7
17:00 1016 30 845 24.95 6.5 43.8 24 -12.4 9.6
17:05 1016 30 845 24.95 6.3 43.4 25 -12.2 10
17:10 1016 30 845 24.95 6.3 43.3 25 -12.5 9.4
17:15 1016 30 845 24.95 5.5 42 26 -12.3 9.8
17:20 1016 30 845 24.95 5.3 41.6 26 -12.6 9.4
17:25 1016 30 845 24.95 5.3 41.6 26 -12.5 9.5
17:30 1016 30 845 24.95 5 41 28 -12 10.5
17:35 1016 30 845 24.95 4.8 40.6 29 -12 10.3
17:40 1016 30 845 24.95 4.7 40.4 29 -11.9 10.6
17:45 1016 30 845 24.95 4.4 39.9 31 -11.4 11.4
17:50 1016 30 845 24.95 3.8 38.8 35 -10.4 13.2
17:55 1016 30 845 24.95 3.1 37.5 37 -10.3 13.4
18:00 1016 30 845 24.95 2.6 36.7 35 -11.5 11.3
18:05 1016 30 845 24.95 2.4 36.4 30 -13.3 8
18:10 1016 30 845 24.95 2 35.5 35 -12.1 10.2
18:15 1016 30 845 24.95 1.7 35.1 37 -11.6 11.1
18:20 1016 30 845 24.95 1.1 34 38 -11.7 10.9
18:25 1016 30 845 24.95 0.9 33.6 41 -11.1 12
18:30 1016 30 845 24.95 0.7 33.3 39 -11.7 10.9
18:35 1016 30 845 24.95 0.3 32.6 41 -11.6 11.2
18:40 1016 30 845 24.95 0.3 32.5 41 -11.4 11.5
18:45 1016 30 845 24.95 -0.1 31.8 42 -11.4 11.4
18:50 1016 30 845 24.95 0 32.1 42 -11.5 11.3
18:55 1016 30 845 24.95 0.1 32.1 38 -12.6 9.3
19:00 1016 30 845 24.95 0.3 32.6 38 -12.3 9.9
19:05 1016 30 845 24.95 0.3 32.5 42 -11.3 11.7
19:10 1016 30 845 24.95 -0.3 31.5 45 -10.9 12.4
19:15 1016 30 845 24.95 -0.5 31.2 45 -11 12.2
19:20 1016 30 845 24.95 -0.5 31.1 45 -11.2 11.9
19:25 1016 30 845 24.95 -0.2 31.7 43 -11.4 11.5
19:30 1016 30 845 24.95 -0.3 31.5 43 -11.4 11.5
19:35 1016 30 845 24.95 -0.2 31.6 44 -11.1 12
19:40 1016 30 845 24.95 -0.5 31.1 44 -11.3 11.7
19:45 1016 30 845 24.95 -0.6 30.9 45 -11.2 11.8
19:50 1016 30 845 24.95 -0.7 30.7 44 -11.5 11.3
19:55 1016 30 845 24.95 -0.8 30.6 43 -11.9 10.6
20:00 1016 30 845 24.95 -0.7 30.7 43 -11.8 10.7
20:05 1015 29.97 845 24.95 -0.6 30.9 43 -11.9 10.6
20:10 1015 29.97 845 24.95 -0.3 31.4 42 -11.8 10.8
20:15 1015 29.97 845 24.95 0.1 32.1 41 -11.6 11
20:20 1015 29.97 845 24.95 -0.2 31.6 44 -11 12.1
20:25 1015 29.97 844 24.92 -0.8 30.6 46 -11 12.2
20:30 1015 29.97 844 24.92 -1.1 29.9 46 -11.2 11.8
20:35 1015 29.97 844 24.92 -0.7 30.7 43 -11.7 10.9
20:40 1015 29.97 844 24.92 -0.6 30.9 45 -11.2 11.8
20:45 1015 29.97 844 24.92 -0.9 30.4 45 -11.5 11.3
20:50 1015 29.97 844 24.92 -0.8 30.6 45 -11.3 11.6
20:55 1015 29.97 844 24.92 -0.9 30.4 46 -11.2 11.9
21:00 1015 29.97 844 24.92 -1.1 30.1 46 -11.2 11.8
21:05 1015 29.97 844 24.92 -1.1 30 47 -11.2 11.9
21:10 1015 29.97 844 24.92 -1.2 29.9 46 -11.4 11.5
21:15 1015 29.97 844 24.92 -1.4 29.4 47 -11.5 11.4
21:20 1015 29.97 844 24.92 -1.6 29.1 46 -11.9 10.6
21:25 1015 29.97 845 24.95 -1.4 29.4 44 -12.1 10.2
21:30 1015 29.97 845 24.95 -1.3 29.7 43 -12.4 9.7
21:35 1015 29.97 844 24.92 -1.4 29.5 45 -11.9 10.6
21:40 1015 29.97 845 24.95 -1.7 29 46 -11.7 10.9
21:45 1015 29.97 845 24.95 -1.3 29.7 46 -11.5 11.4
21:50 1015 29.97 845 24.95 -1.2 29.8 44 -12 10.4
21:55 1015 29.97 844 24.92 -1.2 29.9 44 -11.9 10.5
22:00 1015 29.97 844 24.92 -1.5 29.2 46 -11.6 11
22:05 1015 29.97 844 24.92 -1.8 28.8 46 -11.9 10.6
22:10 1015 29.97 844 24.92 -1.7 29 46 -11.8 10.7
22:15 1015 29.97 844 24.92 -1.5 29.3 46 -11.8 10.8
22:20 1015 29.97 844 24.92 -1.9 28.6 47 -11.8 10.8
22:25 1015 29.97 844 24.92 -2.1 28.3 47 -11.9 10.6
22:30 1015 29.97 844 24.92 -2.1 28.1 48 -11.8 10.7
22:35 1015 29.97 844 24.92 -2.3 27.8 47 -12.1 10.2
22:40 1015 29.97 844 24.92 -2.4 27.6 47 -12.2 10
22:45 1015 29.97 844 24.92 -2.6 27.3 47 -12.5 9.4
22:50 1015 29.97 844 24.92 -2.5 27.5 47 -12.4 9.6
22:55 1015 29.97 844 24.92 -2.3 27.8 45 -12.6 9.3
23:00 1014 29.94 844 24.92 -2.1 28.3 46 -12.1 10.1
23:05 1014 29.94 844 24.92 -2.3 27.9 47 -12.3 9.9
23:10 1014 29.94 844 24.92 -2.3 27.8 46 -12.4 9.6
23:15 1014 29.94 843 24.89 -2.4 27.7 46 -12.4 9.6
23:20 1014 29.94 843 24.89 -2.6 27.4 47 -12.5 9.5
23:25 1014 29.94 843 24.89 -2.6 27.3 46 -12.7 9.1
23:30 1014 29.94 843 24.89 -2.4 27.7 44 -13 8.6
23:35 1014 29.94 843 24.89 -2.5 27.5 45 -13 8.6
23:40 1014 29.94 843 24.89 -2.7 27.2 45 -13 8.7
23:45 1014 29.94 843 24.89 -2.8 27 45 -13.1 8.5
23:50 1014 29.94 843 24.89 -2.9 26.8 46 -13 8.6
23:55 1014 29.94 843 24.89 -3.1 26.4 46 -13.2 8.3
24:00 1014 29.94 843 24.89 -3.1 26.4 45 -13.5 7.7